createdAt,value
2023-03-20T00:01:00.046Z,26.18
2023-03-20T00:03:28.019Z,26.17
2023-03-20T00:05:56.024Z,26.17
2023-03-20T00:08:27.402Z,26.17
2023-03-20T00:10:57.322Z,26.15
2023-03-20T00:13:28.382Z,26.17
2023-03-20T00:15:56.569Z,26.17
2023-03-20T00:18:26.619Z,26.17
2023-03-20T00:20:54.720Z,26.15
2023-03-20T00:23:22.742Z,26.16
2023-03-20T00:25:53.282Z,26.17
2023-03-20T00:28:39.042Z,26.18
2023-03-20T00:31:15.230Z,26.01
2023-03-20T00:33:43.248Z,26.14
2023-03-20T00:36:11.540Z,26.14
2023-03-20T00:38:40.971Z,26.14
2023-03-20T00:41:24.599Z,26.15
2023-03-20T00:43:55.556Z,26.14
2023-03-20T00:46:24.304Z,26.13
2023-03-20T00:48:52.808Z,26.14
2023-03-20T00:51:20.869Z,26.13
2023-03-20T00:53:48.843Z,25.75
2023-03-20T00:56:32.810Z,26.12
2023-03-20T00:59:02.591Z,26.11
2023-03-20T01:01:31.987Z,26.10
2023-03-20T01:04:00.863Z,26.09
2023-03-20T01:06:31.415Z,26.10
2023-03-20T01:09:00.191Z,26.00
2023-03-20T01:11:29.496Z,26.11
2023-03-20T01:13:57.533Z,26.10
2023-03-20T01:16:27.632Z,26.12
2023-03-20T01:18:56.728Z,26.13
2023-03-20T01:21:25.785Z,26.14
2023-03-20T01:23:53.717Z,26.13
2023-03-20T01:26:33.007Z,26.17
2023-03-20T01:29:01.292Z,26.14
2023-03-20T01:31:30.835Z,26.16
2023-03-20T01:33:58.866Z,26.17
2023-03-20T01:36:26.918Z,26.17
2023-03-20T01:38:58.099Z,26.17
2023-03-20T01:41:27.613Z,26.18
2023-03-20T01:43:57.142Z,26.11
2023-03-20T01:46:28.446Z,25.97
2023-03-20T01:49:29.713Z,26.19
2023-03-20T01:52:02.137Z,26.17
2023-03-20T01:54:37.136Z,26.17
2023-03-20T01:57:14.068Z,26.11
2023-03-20T01:59:48.358Z,26.18
2023-03-20T02:02:20.877Z,26.14
2023-03-20T02:04:53.598Z,26.19
2023-03-20T02:07:24.044Z,26.17
2023-03-20T02:10:03.421Z,26.17
2023-03-20T02:12:47.330Z,26.11
2023-03-20T02:15:29.063Z,26.13
2023-03-20T02:18:19.887Z,26.16
2023-03-20T02:21:12.172Z,26.16
2023-03-20T02:24:15.898Z,26.17
2023-03-20T02:26:59.165Z,26.18
2023-03-20T02:29:59.561Z,26.17
2023-03-20T02:33:07.261Z,26.17
2023-03-20T02:36:18.815Z,26.19
2023-03-20T02:39:07.945Z,26.19
2023-03-20T02:41:43.798Z,26.19
2023-03-20T02:44:20.829Z,26.21
2023-03-20T02:46:57.619Z,26.21
2023-03-20T02:49:45.402Z,26.24
2023-03-20T02:52:20.271Z,26.24
2023-03-20T02:54:58.294Z,26.26
2023-03-20T02:57:36.846Z,26.26
2023-03-20T03:00:13.696Z,26.27
2023-03-20T03:02:47.747Z,26.27
2023-03-20T03:05:21.980Z,26.26
2023-03-20T03:07:53.681Z,26.26
2023-03-20T03:10:27.372Z,26.27
2023-03-20T03:12:58.563Z,26.26
2023-03-20T03:15:31.316Z,26.27
2023-03-20T03:18:00.613Z,26.27
2023-03-20T03:20:33.484Z,26.28
2023-03-20T03:23:03.150Z,26.27
2023-03-20T03:25:36.262Z,26.09
2023-03-20T03:28:09.135Z,26.27
2023-03-20T03:30:40.442Z,26.25
2023-03-20T03:33:17.130Z,26.27
2023-03-20T03:35:45.458Z,26.27
2023-03-20T03:38:27.569Z,26.28
2023-03-20T03:41:09.776Z,26.27
2023-03-20T03:43:44.764Z,26.28
2023-03-20T03:46:18.182Z,26.28
2023-03-20T03:51:25.004Z,26.30
2023-03-20T03:54:12.823Z,26.28
2023-03-20T03:56:45.984Z,26.30
2023-03-20T03:59:21.605Z,26.32
2023-03-20T04:01:51.734Z,26.34
2023-03-20T04:04:22.139Z,26.33
2023-03-20T04:06:50.336Z,26.34
2023-03-20T04:09:18.341Z,26.35
2023-03-20T04:11:51.744Z,26.38
2023-03-20T04:14:21.083Z,26.36
2023-03-20T04:16:49.421Z,26.38
2023-03-20T04:19:17.724Z,26.38
2023-03-20T04:21:47.009Z,26.38
2023-03-20T04:24:16.166Z,26.36
2023-03-20T04:26:44.459Z,26.36
2023-03-20T04:29:14.197Z,26.36
2023-03-20T04:32:09.429Z,26.34
2023-03-20T04:34:59.234Z,26.33
2023-03-20T04:37:30.610Z,26.31
2023-03-20T04:40:05.352Z,26.33
2023-03-20T04:42:33.354Z,26.33
2023-03-20T04:45:07.796Z,26.34
2023-03-20T04:47:38.298Z,26.34
2023-03-20T04:50:08.559Z,26.33
2023-03-20T04:52:37.493Z,26.33
2023-03-20T04:55:06.616Z,26.32
2023-03-20T04:57:35.306Z,26.33
2023-03-20T05:00:04.314Z,26.35
2023-03-20T05:02:34.488Z,26.35
2023-03-20T05:05:02.496Z,26.24
2023-03-20T05:07:30.996Z,26.36
2023-03-20T05:10:06.765Z,26.36
2023-03-20T05:12:44.172Z,26.25
2023-03-20T05:15:45.162Z,26.37
2023-03-20T05:18:37.385Z,26.37
2023-03-20T05:21:12.861Z,26.24
2023-03-20T05:23:57.454Z,26.35
2023-03-20T05:26:32.229Z,26.30
2023-03-20T05:29:23.219Z,26.35
2023-03-20T05:32:06.801Z,26.38
2023-03-20T05:34:47.375Z,26.38
2023-03-20T05:37:27.511Z,26.36
2023-03-20T05:40:27.884Z,26.34
2023-03-20T05:43:12.330Z,26.34
2023-03-20T05:46:03.987Z,26.20
2023-03-20T05:48:46.438Z,26.29
2023-03-20T05:51:16.047Z,26.28
2023-03-20T05:53:54.032Z,26.30
2023-03-20T05:56:57.245Z,26.29
2023-03-20T05:59:36.765Z,26.28
2023-03-20T06:02:17.311Z,26.28
2023-03-20T06:04:54.037Z,26.16
2023-03-20T06:07:29.852Z,26.28
2023-03-20T06:10:02.305Z,26.28
2023-03-20T06:12:31.311Z,26.28
2023-03-20T06:14:59.684Z,26.28
2023-03-20T06:17:28.464Z,26.28
2023-03-20T06:20:03.471Z,26.29
2023-03-20T06:22:33.553Z,26.31
2023-03-20T06:25:01.840Z,26.30
2023-03-20T06:27:35.918Z,26.30
2023-03-20T06:30:04.864Z,26.11
2023-03-20T06:32:35.716Z,26.30
2023-03-20T06:35:07.622Z,26.30
2023-03-20T06:37:37.425Z,26.30
2023-03-20T06:40:12.332Z,26.29
2023-03-20T06:42:40.394Z,26.30
2023-03-20T06:45:09.914Z,26.28
2023-03-20T06:47:47.312Z,26.26
2023-03-20T06:50:15.980Z,26.06
2023-03-20T06:52:45.835Z,26.27
2023-03-20T06:55:39.970Z,26.25
2023-03-20T06:58:08.002Z,26.24
2023-03-20T07:00:37.691Z,26.24
2023-03-20T07:03:07.658Z,26.23
2023-03-20T07:05:36.117Z,26.23
2023-03-20T07:08:09.420Z,26.22
2023-03-20T07:10:37.980Z,26.21
2023-03-20T07:13:06.924Z,26.22
2023-03-20T07:15:37.909Z,26.20
2023-03-20T07:18:08.464Z,26.19
2023-03-20T07:20:36.393Z,26.19
2023-03-20T07:23:04.634Z,26.05
2023-03-20T07:25:42.867Z,26.18
2023-03-20T07:28:15.666Z,26.17
2023-03-20T07:30:48.404Z,26.15
2023-03-20T07:33:18.029Z,26.16
2023-03-20T07:35:46.931Z,26.16
2023-03-20T07:38:15.318Z,26.13
2023-03-20T07:40:54.931Z,26.18
2023-03-20T07:43:22.957Z,26.10
2023-03-20T07:46:04.129Z,26.18
2023-03-20T07:48:32.426Z,26.20
2023-03-20T07:51:00.686Z,26.18
2023-03-20T07:53:28.996Z,26.18
2023-03-20T07:55:58.427Z,26.21
2023-03-20T07:58:26.826Z,26.25
2023-03-20T08:00:54.902Z,26.27
2023-03-20T08:03:23.020Z,26.26
2023-03-20T08:05:51.169Z,26.06
2023-03-20T08:08:19.420Z,26.31
2023-03-20T08:10:47.695Z,26.35
2023-03-20T08:13:17.078Z,26.39
2023-03-20T08:15:45.702Z,26.41
2023-03-20T08:18:13.850Z,26.43
2023-03-20T08:20:42.090Z,26.43
2023-03-20T08:23:09.977Z,26.45
2023-03-20T08:25:38.357Z,26.44
2023-03-20T08:28:06.552Z,26.44
2023-03-20T08:30:36.216Z,26.46
2023-03-20T08:33:04.342Z,26.46
2023-03-20T08:35:33.823Z,26.45
2023-03-20T08:38:03.333Z,26.46
2023-03-20T08:40:31.389Z,26.46
2023-03-20T08:42:59.967Z,26.47
2023-03-20T08:45:28.080Z,26.38
2023-03-20T08:47:57.462Z,26.50
2023-03-20T08:50:25.613Z,26.51
2023-03-20T08:52:53.585Z,26.52
2023-03-20T08:55:21.645Z,26.53
2023-03-20T08:57:49.629Z,26.55
2023-03-20T09:00:20.371Z,26.56
2023-03-20T09:02:48.677Z,26.38
2023-03-20T09:05:18.568Z,26.57
2023-03-20T09:07:46.589Z,26.48
2023-03-20T09:10:17.482Z,26.40
2023-03-20T09:12:45.571Z,26.60
2023-03-20T09:15:13.591Z,26.62
2023-03-20T09:17:41.619Z,26.64
2023-03-20T09:20:10.771Z,26.65
2023-03-20T09:22:42.561Z,26.66
2023-03-20T09:25:11.339Z,26.66
2023-03-20T09:27:39.485Z,26.66
2023-03-20T09:30:09.200Z,26.67
2023-03-20T09:32:37.335Z,26.68
2023-03-20T09:35:07.858Z,26.70
2023-03-20T09:37:36.463Z,26.74
2023-03-20T09:40:07.082Z,26.74
2023-03-20T09:42:46.635Z,26.76
2023-03-20T09:45:25.499Z,26.77
2023-03-20T09:48:03.572Z,26.77
2023-03-20T09:50:38.235Z,26.80
2023-03-20T09:53:12.235Z,26.81
2023-03-20T09:55:43.942Z,26.82
2023-03-20T09:58:16.134Z,26.60
2023-03-20T10:00:47.024Z,26.79
2023-03-20T10:03:21.326Z,26.83
2023-03-20T10:05:55.471Z,26.85
2023-03-20T10:08:29.157Z,26.84
2023-03-20T10:11:09.456Z,26.89
2023-03-20T10:14:03.425Z,26.93
2023-03-20T10:16:46.655Z,26.95
2023-03-20T10:19:22.482Z,26.94
2023-03-20T10:21:57.175Z,26.92
2023-03-20T10:24:30.310Z,26.93
2023-03-20T10:27:05.955Z,26.92
2023-03-20T10:29:46.117Z,26.93
2023-03-20T10:32:21.227Z,26.94
2023-03-20T10:35:03.010Z,26.95
2023-03-20T10:37:46.451Z,26.96
2023-03-20T10:40:26.743Z,26.95
2023-03-20T10:43:00.538Z,26.95
2023-03-20T10:45:40.872Z,26.95
2023-03-20T10:48:18.162Z,26.97
2023-03-20T10:50:49.953Z,26.95
2023-03-20T10:53:26.897Z,26.96
2023-03-20T10:55:58.576Z,26.86
2023-03-20T10:58:33.036Z,26.93
2023-03-20T11:01:01.222Z,26.93
2023-03-20T11:03:31.956Z,26.93
2023-03-20T11:06:09.718Z,26.91
2023-03-20T11:08:40.447Z,26.90
2023-03-20T11:11:09.090Z,26.89
2023-03-20T11:13:41.497Z,26.89
2023-03-20T11:16:20.534Z,26.89
2023-03-20T11:18:50.116Z,26.68
2023-03-20T11:21:26.064Z,26.87
2023-03-20T11:23:55.535Z,26.82
2023-03-20T11:26:37.071Z,26.86
2023-03-20T11:29:13.823Z,26.84
2023-03-20T11:31:43.129Z,26.83
2023-03-20T11:34:23.319Z,26.73
2023-03-20T11:37:09.167Z,26.82
2023-03-20T11:39:40.000Z,26.73
2023-03-20T11:42:24.157Z,26.82
2023-03-20T11:45:01.029Z,26.83
2023-03-20T11:47:32.966Z,26.82
2023-03-20T11:50:02.616Z,26.82
2023-03-20T11:52:33.745Z,26.80
2023-03-20T11:55:04.329Z,26.79
2023-03-20T11:57:37.434Z,26.79
2023-03-20T12:00:18.117Z,26.79
2023-03-20T12:02:46.703Z,26.79
2023-03-20T12:05:30.254Z,26.79
2023-03-20T12:08:02.317Z,26.78
2023-03-20T12:10:37.045Z,26.71
2023-03-20T12:13:12.969Z,26.78
2023-03-20T12:15:49.059Z,26.66
2023-03-20T12:18:22.112Z,26.75
2023-03-20T12:21:00.989Z,26.75
2023-03-20T12:23:35.821Z,26.74
2023-03-20T12:26:08.425Z,26.74
2023-03-20T12:28:41.839Z,26.74
2023-03-20T12:31:23.341Z,26.58
2023-03-20T12:33:55.959Z,26.70
2023-03-20T12:36:31.309Z,26.68
2023-03-20T12:38:59.721Z,26.65
2023-03-20T12:41:31.637Z,26.64
2023-03-20T12:44:25.754Z,26.62
2023-03-20T12:47:10.316Z,26.59
2023-03-20T12:49:52.002Z,26.61
2023-03-20T12:52:29.025Z,26.62
2023-03-20T12:55:16.713Z,26.61
2023-03-20T12:57:59.342Z,26.68
2023-03-20T13:00:33.878Z,26.69
2023-03-20T13:03:21.151Z,26.71
2023-03-20T13:05:56.457Z,26.67
2023-03-20T13:08:43.851Z,26.75
2023-03-20T13:11:19.612Z,26.76
2023-03-20T13:13:53.666Z,26.77
2023-03-20T13:16:30.859Z,26.79
2023-03-20T13:19:07.363Z,26.80
2023-03-20T13:21:41.930Z,26.81
2023-03-20T13:24:24.740Z,26.84
2023-03-20T13:27:03.391Z,26.85
2023-03-20T13:29:39.970Z,26.86
2023-03-20T13:32:20.057Z,26.88
2023-03-20T13:35:07.128Z,26.87
2023-03-20T13:37:39.203Z,26.86
2023-03-20T13:40:15.591Z,26.85
2023-03-20T13:42:51.847Z,26.83
2023-03-20T13:45:32.767Z,26.81
2023-03-20T13:48:06.702Z,26.76
2023-03-20T13:50:45.599Z,26.75
2023-03-20T13:53:24.707Z,26.71
2023-03-20T13:55:59.767Z,26.68
2023-03-20T13:58:54.040Z,26.67
2023-03-20T14:01:27.003Z,26.63
2023-03-20T14:03:55.825Z,26.63
2023-03-20T14:06:50.001Z,26.64
2023-03-20T14:09:33.072Z,26.63
2023-03-20T14:12:07.626Z,26.48
2023-03-20T14:14:43.341Z,26.63
2023-03-20T14:17:19.120Z,26.57
2023-03-20T14:19:48.544Z,26.62
2023-03-20T14:22:21.464Z,26.61
2023-03-20T14:24:57.896Z,26.59
2023-03-20T14:27:45.087Z,26.59
2023-03-20T14:30:39.324Z,26.60
2023-03-20T14:33:24.258Z,26.58
2023-03-20T14:36:11.335Z,26.57
2023-03-20T14:38:54.169Z,26.60
2023-03-20T14:41:27.732Z,26.43
2023-03-20T14:44:07.576Z,26.58
2023-03-20T14:46:48.647Z,26.56
2023-03-20T14:49:27.394Z,26.53
2023-03-20T14:52:02.001Z,26.53
2023-03-20T14:54:32.288Z,26.52
2023-03-20T14:57:10.818Z,26.47
2023-03-20T14:59:39.084Z,26.50
2023-03-20T15:02:07.128Z,26.50
2023-03-20T15:04:39.511Z,26.49
2023-03-20T15:07:15.003Z,26.51
2023-03-20T15:09:46.662Z,26.50
2023-03-20T15:12:17.841Z,26.36
2023-03-20T15:14:52.415Z,26.45
2023-03-20T15:17:22.678Z,26.48
2023-03-20T15:19:50.884Z,26.28
2023-03-20T15:22:21.871Z,26.48
2023-03-20T15:24:55.871Z,26.48
2023-03-20T15:27:29.541Z,26.28
2023-03-20T15:29:59.228Z,26.36
2023-03-20T15:32:27.406Z,26.47
2023-03-20T15:34:55.556Z,26.46
2023-03-20T15:37:25.797Z,26.30
2023-03-20T15:39:56.892Z,26.32
2023-03-20T15:42:27.623Z,26.44
2023-03-20T15:44:57.039Z,26.44
2023-03-20T15:47:29.358Z,26.43
2023-03-20T15:50:00.077Z,26.42
2023-03-20T15:52:33.758Z,26.42
2023-03-20T15:55:07.350Z,26.40
2023-03-20T15:57:37.562Z,26.42
2023-03-20T16:00:08.786Z,26.42
2023-03-20T16:02:38.086Z,26.41
2023-03-20T16:05:10.309Z,26.35
2023-03-20T16:07:38.312Z,26.24
2023-03-20T16:10:19.562Z,26.36
2023-03-20T16:12:50.860Z,26.32
2023-03-20T16:15:20.663Z,26.31
2023-03-20T16:17:50.715Z,26.30
2023-03-20T16:20:19.424Z,26.28
2023-03-20T16:22:47.607Z,26.25
2023-03-20T16:25:19.698Z,26.23
2023-03-20T16:27:51.953Z,26.20
2023-03-20T16:30:23.417Z,26.16
2023-03-20T16:32:57.456Z,26.14
2023-03-20T16:35:28.604Z,26.11
2023-03-20T16:37:58.899Z,26.10
2023-03-20T16:40:33.112Z,26.09
2023-03-20T16:43:08.028Z,26.07
2023-03-20T16:45:37.272Z,26.04
2023-03-20T16:48:27.293Z,26.03
2023-03-20T16:51:04.288Z,26.01
2023-03-20T16:53:39.173Z,26.01
2023-03-20T16:56:13.089Z,25.92
2023-03-20T16:58:42.778Z,25.95
2023-03-20T17:01:17.488Z,25.96
2023-03-20T17:03:53.428Z,25.94
2023-03-20T17:06:45.648Z,25.93
2023-03-20T17:09:23.433Z,25.91
2023-03-20T17:11:59.306Z,25.90
2023-03-20T17:14:27.299Z,25.87
2023-03-20T17:16:57.765Z,25.86
2023-03-20T17:19:26.283Z,25.86
2023-03-20T17:21:54.411Z,25.85
2023-03-20T17:24:22.467Z,25.85
2023-03-20T17:26:55.872Z,25.47
2023-03-20T17:29:24.176Z,25.82
2023-03-20T17:31:52.715Z,25.84
2023-03-20T17:34:20.822Z,25.82
2023-03-20T17:36:49.707Z,25.82
2023-03-20T17:39:20.426Z,25.82
2023-03-20T17:41:48.717Z,25.81
2023-03-20T17:44:18.129Z,25.80
2023-03-20T17:46:57.732Z,25.78
2023-03-20T17:49:28.036Z,25.77
2023-03-20T17:51:56.412Z,25.64
2023-03-20T17:54:24.518Z,25.77
2023-03-20T17:56:52.471Z,25.75
2023-03-20T17:59:21.901Z,25.77
2023-03-20T18:01:49.944Z,25.76
2023-03-20T18:04:19.710Z,25.75
2023-03-20T18:06:48.994Z,25.74
2023-03-20T18:09:17.234Z,25.74
2023-03-20T18:11:45.200Z,25.73
2023-03-20T18:14:17.292Z,25.73
2023-03-20T18:16:46.900Z,25.62
2023-03-20T18:19:23.282Z,25.72
2023-03-20T18:21:51.293Z,25.70
2023-03-20T18:24:19.251Z,25.69
2023-03-20T18:26:47.443Z,25.63
2023-03-20T18:29:15.459Z,25.66
2023-03-20T18:31:44.283Z,25.51
2023-03-20T18:34:13.875Z,25.68
2023-03-20T18:36:42.340Z,25.65
2023-03-20T18:39:17.522Z,25.69
2023-03-20T18:41:46.021Z,25.68
2023-03-20T18:44:14.150Z,25.68
2023-03-20T18:46:43.217Z,25.65
2023-03-20T18:49:16.195Z,25.70
2023-03-20T18:51:44.533Z,25.68
2023-03-20T18:54:12.740Z,25.71
2023-03-20T18:56:41.094Z,25.69
2023-03-20T18:59:12.698Z,25.63
2023-03-20T19:01:41.188Z,25.73
2023-03-20T19:04:09.591Z,25.74
2023-03-20T19:06:39.084Z,25.75
2023-03-20T19:09:07.397Z,25.76
2023-03-20T19:11:35.427Z,25.32
2023-03-20T19:14:03.353Z,25.76
2023-03-20T19:16:33.190Z,25.77
2023-03-20T19:19:02.930Z,25.72
2023-03-20T19:21:32.111Z,25.78
2023-03-20T19:24:03.300Z,25.77
2023-03-20T19:26:33.401Z,25.77
2023-03-20T19:29:02.977Z,25.76
2023-03-20T19:31:31.048Z,25.66
2023-03-20T19:33:59.540Z,25.75
2023-03-20T19:36:30.658Z,25.75
2023-03-20T19:39:01.712Z,25.54
2023-03-20T19:41:32.271Z,25.74
2023-03-20T19:44:01.451Z,25.74
2023-03-20T19:46:45.268Z,25.56
2023-03-20T19:49:19.661Z,25.74
2023-03-20T19:51:48.418Z,25.72
2023-03-20T19:54:18.375Z,25.73
2023-03-20T19:56:46.396Z,25.72
2023-03-20T19:59:16.591Z,25.72
2023-03-20T20:01:46.669Z,25.55
2023-03-20T20:04:15.003Z,25.72
2023-03-20T20:06:43.271Z,25.72
2023-03-20T20:09:11.274Z,25.64
2023-03-20T20:11:40.909Z,25.74
2023-03-20T20:14:10.374Z,25.74
2023-03-20T20:16:42.420Z,25.73
2023-03-20T20:19:10.628Z,25.73
2023-03-20T20:24:27.588Z,25.73
2023-03-20T20:27:15.386Z,25.73
2023-03-20T20:29:46.720Z,25.73
2023-03-20T20:32:14.832Z,25.73
2023-03-20T20:40:21.660Z,25.65
2023-03-20T20:42:54.121Z,25.73
2023-03-20T20:45:23.520Z,25.70
2023-03-20T20:47:52.176Z,25.71
2023-03-20T20:50:22.046Z,25.70
2023-03-20T20:52:50.562Z,25.70
2023-03-20T20:55:23.522Z,25.69
2023-03-20T20:57:55.602Z,25.57
2023-03-20T21:00:41.247Z,25.67
2023-03-20T21:03:17.717Z,25.39
2023-03-20T21:05:45.820Z,25.64
2023-03-20T21:08:14.384Z,25.64
2023-03-20T21:10:42.757Z,25.54
2023-03-20T21:13:12.137Z,25.65
2023-03-20T21:15:40.841Z,25.63
2023-03-20T21:18:09.615Z,25.66
2023-03-20T21:20:38.328Z,25.62
2023-03-20T21:23:06.485Z,25.67
2023-03-20T21:25:45.446Z,25.69
2023-03-20T21:28:16.088Z,25.69
2023-03-20T21:31:06.076Z,25.70
2023-03-20T21:33:32.999Z,25.70
2023-03-20T21:36:01.024Z,25.71
2023-03-20T21:41:17.429Z,25.72
2023-03-20T21:43:47.601Z,25.75
2023-03-20T21:49:55.475Z,25.75
2023-03-20T21:52:41.927Z,25.75
2023-03-20T21:55:38.527Z,25.75
2023-03-20T21:58:10.466Z,25.76
2023-03-20T22:01:12.170Z,25.76
2023-03-20T22:03:11.460Z,25.76
2023-03-20T22:06:22.046Z,25.77
2023-03-20T22:09:30.973Z,25.40
2023-03-20T22:14:52.157Z,25.79
2023-03-20T22:20:38.552Z,25.80
2023-03-20T22:28:56.743Z,25.85
2023-03-20T22:37:30.117Z,25.88
2023-03-20T22:40:22.873Z,25.90
2023-03-20T22:45:03.319Z,25.88
2023-03-20T22:47:32.109Z,25.89
2023-03-20T22:50:01.658Z,25.90
2023-03-20T22:52:45.566Z,25.89
2023-03-20T22:55:17.294Z,25.90
2023-03-20T22:58:00.003Z,25.89
2023-03-20T23:00:33.921Z,25.89
2023-03-20T23:03:25.725Z,25.91
2023-03-20T23:05:52.199Z,25.75
2023-03-20T23:08:20.734Z,25.89
2023-03-20T23:10:50.960Z,25.90
2023-03-20T23:13:22.212Z,25.91
2023-03-20T23:15:51.601Z,25.91
2023-03-20T23:18:19.940Z,25.92
2023-03-20T23:20:47.893Z,25.94
2023-03-20T23:23:17.658Z,25.96
2023-03-20T23:25:45.664Z,25.97
2023-03-20T23:28:13.732Z,25.98
2023-03-20T23:30:48.182Z,25.97
2023-03-20T23:33:19.746Z,25.98
2023-03-20T23:35:51.374Z,25.87
2023-03-20T23:38:22.617Z,26.01
2023-03-20T23:40:51.180Z,25.97
2023-03-20T23:43:19.224Z,26.03
2023-03-20T23:45:47.994Z,26.06
2023-03-20T23:48:17.009Z,26.07
2023-03-20T23:50:52.932Z,25.88
2023-03-20T23:53:23.188Z,26.08
2023-03-20T23:55:53.896Z,26.10
2023-03-20T23:58:22.620Z,26.10
